createdAt,value
2024-03-08T00:02:10.094Z,100870.56
2024-03-08T00:04:36.755Z,100868.72
2024-03-08T00:07:03.470Z,100864.09
2024-03-08T00:09:31.833Z,100873.78
2024-03-08T00:11:59.028Z,100871.84
2024-03-08T00:14:25.949Z,100869.91
2024-03-08T00:16:53.940Z,100869.59
2024-03-08T00:19:20.600Z,100872.22
2024-03-08T00:21:47.282Z,100875.66
2024-03-08T00:24:13.965Z,100867.66
2024-03-08T00:26:40.643Z,100868.53
2024-03-08T00:29:08.941Z,100872.91
2024-03-08T00:31:36.488Z,100868.53
2024-03-08T00:34:03.550Z,100864.06
2024-03-08T00:36:31.492Z,100861.34
2024-03-08T00:38:58.442Z,100864.00
2024-03-08T00:41:27.643Z,100857.78
2024-03-08T00:43:54.471Z,100859.53
2024-03-08T00:46:21.211Z,100856.00
2024-03-08T00:48:48.480Z,100854.22
2024-03-08T00:51:16.486Z,100848.88
2024-03-08T00:53:44.252Z,100847.09
2024-03-08T00:56:13.809Z,100850.59
2024-03-08T00:58:41.309Z,100849.75
2024-03-08T01:01:08.048Z,100853.19
2024-03-08T01:03:35.515Z,100853.19
2024-03-08T01:06:02.531Z,100845.19
2024-03-08T01:08:29.304Z,100843.47
2024-03-08T01:10:56.039Z,100846.06
2024-03-08T01:13:22.773Z,100841.69
2024-03-08T01:15:49.412Z,100838.94
2024-03-08T01:18:16.186Z,100836.25
2024-03-08T01:20:42.948Z,100844.19
2024-03-08T01:23:09.664Z,100842.38
2024-03-08T01:25:36.885Z,100846.00
2024-03-08T01:28:03.747Z,100844.09
2024-03-08T01:30:30.512Z,100836.03
2024-03-08T01:32:57.202Z,100840.59
2024-03-08T01:35:24.003Z,100842.22
2024-03-08T01:37:50.821Z,100843.16
2024-03-08T01:40:18.004Z,100848.47
2024-03-08T01:42:46.110Z,100846.63
2024-03-08T01:45:12.989Z,100846.63
2024-03-08T01:47:40.103Z,100845.69
2024-03-08T01:50:07.699Z,100836.84
2024-03-08T01:52:35.212Z,100835.03
2024-03-08T01:55:02.090Z,100834.19
2024-03-08T01:57:29.695Z,100834.19
2024-03-08T01:59:57.066Z,100836.75
2024-03-08T02:02:23.771Z,100831.44
2024-03-08T02:04:53.952Z,100836.75
2024-03-08T02:07:20.856Z,100846.41
2024-03-08T02:09:47.565Z,100834.09
2024-03-08T02:12:14.254Z,100837.59
2024-03-08T02:14:41.443Z,100833.13
2024-03-08T02:17:08.898Z,100839.31
2024-03-08T02:19:37.496Z,100838.31
2024-03-08T02:22:05.520Z,100839.28
2024-03-08T02:24:33.102Z,100839.28
2024-03-08T02:26:59.818Z,100849.84
2024-03-08T02:29:26.655Z,100846.31
2024-03-08T02:31:53.763Z,100845.38
2024-03-08T02:34:21.266Z,100849.75
2024-03-08T02:36:48.163Z,100843.50
2024-03-08T02:39:15.079Z,100846.16
2024-03-08T02:41:41.845Z,100832.84
2024-03-08T02:44:08.544Z,100831.09
2024-03-08T02:46:37.002Z,100833.72
2024-03-08T02:49:03.759Z,100837.22
2024-03-08T02:51:30.567Z,100839.91
2024-03-08T02:53:57.433Z,100846.16
2024-03-08T02:56:24.124Z,100845.12
2024-03-08T02:58:50.790Z,100848.75
2024-03-08T03:01:17.616Z,100847.03
2024-03-08T03:03:44.283Z,100848.66
2024-03-08T03:06:11.144Z,100850.53
2024-03-08T03:08:38.035Z,100844.28
2024-03-08T03:11:04.868Z,100846.06
2024-03-08T03:13:31.570Z,100847.78
2024-03-08T03:15:59.183Z,100839.81
2024-03-08T03:18:27.413Z,100842.47
2024-03-08T03:20:54.341Z,100846.84
2024-03-08T03:23:22.059Z,100851.25
2024-03-08T03:25:49.027Z,100853.06
2024-03-08T03:28:18.743Z,100856.50
2024-03-08T03:30:48.755Z,100851.19
2024-03-08T03:33:17.778Z,100854.78
2024-03-08T03:35:45.278Z,100854.84
2024-03-08T03:38:12.442Z,100857.44
2024-03-08T03:40:41.036Z,100853.06
2024-03-08T03:43:08.582Z,100861.06
2024-03-08T03:45:37.136Z,100856.63
2024-03-08T03:48:05.904Z,100851.25
2024-03-08T03:50:36.134Z,100850.31
2024-03-08T03:53:05.958Z,100860.03
2024-03-08T03:55:32.759Z,100858.22
2024-03-08T03:58:02.298Z,100859.03
2024-03-08T04:00:29.068Z,100861.75
2024-03-08T04:02:56.310Z,100859.03
2024-03-08T04:05:23.163Z,100858.31
2024-03-08T04:07:49.876Z,100853.97
2024-03-08T04:10:16.569Z,100858.62
2024-03-08T04:12:43.388Z,100852.62
2024-03-08T04:15:12.537Z,100862.66
2024-03-08T04:17:39.685Z,100860.41
2024-03-08T04:20:11.003Z,100852.78
2024-03-08T04:22:38.339Z,100854.03
2024-03-08T04:25:05.204Z,100856.09
2024-03-08T04:27:34.016Z,100863.63
2024-03-08T04:30:01.418Z,100857.00
2024-03-08T04:32:30.856Z,100860.13
2024-03-08T04:34:58.147Z,100860.75
2024-03-08T04:37:25.029Z,100863.87
2024-03-08T04:39:51.758Z,100861.63
2024-03-08T04:42:19.432Z,100860.34
2024-03-08T04:44:46.682Z,100859.03
2024-03-08T04:47:13.475Z,100870.87
2024-03-08T04:49:40.173Z,100861.53
2024-03-08T04:52:08.189Z,100869.00
2024-03-08T04:54:35.544Z,100866.66
2024-03-08T04:57:05.122Z,100873.97
2024-03-08T04:59:33.659Z,100869.88
2024-03-08T05:02:00.357Z,100870.97
2024-03-08T05:04:27.049Z,100866.81
2024-03-08T05:06:54.766Z,100868.72
2024-03-08T05:09:21.820Z,100867.25
2024-03-08T05:11:48.644Z,100873.75
2024-03-08T05:14:18.256Z,100868.69
2024-03-08T05:16:50.001Z,100869.81
2024-03-08T05:19:20.309Z,100874.34
2024-03-08T05:21:47.436Z,100873.69
2024-03-08T05:24:18.222Z,100872.16
2024-03-08T05:26:45.615Z,100873.19
2024-03-08T05:29:12.400Z,100866.28
2024-03-08T05:31:49.539Z,100876.12
2024-03-08T05:34:17.070Z,100879.88
2024-03-08T05:36:45.577Z,100887.06
2024-03-08T05:39:15.968Z,100887.19
2024-03-08T05:41:43.247Z,100884.72
2024-03-08T05:44:10.318Z,100882.19
2024-03-08T05:46:37.310Z,100888.59
2024-03-08T05:49:07.388Z,100890.50
2024-03-08T05:51:37.312Z,100895.06
2024-03-08T05:54:11.901Z,100898.75
2024-03-08T05:56:39.524Z,100905.03
2024-03-08T05:59:06.249Z,100907.81
2024-03-08T06:01:33.306Z,100908.84
2024-03-08T06:04:00.011Z,100914.25
2024-03-08T06:06:27.234Z,100905.50
2024-03-08T06:08:54.124Z,100907.97
2024-03-08T06:11:23.765Z,100911.16
2024-03-08T06:13:51.115Z,100906.00
2024-03-08T06:16:17.848Z,100903.50
2024-03-08T06:18:44.939Z,100909.78
2024-03-08T06:21:13.580Z,100907.34
2024-03-08T06:23:40.512Z,100903.50
2024-03-08T06:26:07.382Z,100915.50
2024-03-08T06:28:34.167Z,100916.81
2024-03-08T06:31:01.179Z,100909.47
2024-03-08T06:33:30.723Z,100909.94
2024-03-08T06:35:58.584Z,100918.37
2024-03-08T06:38:26.473Z,100918.56
2024-03-08T06:40:53.662Z,100917.59
2024-03-08T06:43:20.402Z,100915.19
2024-03-08T06:45:49.927Z,100920.16
2024-03-08T06:48:19.973Z,100918.13
2024-03-08T06:50:47.679Z,100924.41
2024-03-08T06:53:14.782Z,100922.25
2024-03-08T06:55:41.520Z,100928.94
2024-03-08T06:58:08.223Z,100929.41
2024-03-08T07:00:34.994Z,100926.66
2024-03-08T07:03:02.181Z,100919.09
2024-03-08T07:05:31.889Z,100929.63
2024-03-08T07:07:59.510Z,100929.78
2024-03-08T07:10:26.605Z,100931.47
2024-03-08T07:12:54.328Z,100932.59
2024-03-08T07:15:21.359Z,100932.78
2024-03-08T07:17:48.523Z,100932.97
2024-03-08T07:20:17.065Z,100933.53
2024-03-08T07:22:46.335Z,100933.97
2024-03-08T07:25:24.856Z,100933.97
2024-03-08T07:27:55.640Z,100934.56
2024-03-08T07:30:42.149Z,100941.87
2024-03-08T07:33:09.053Z,100929.28
2024-03-08T07:35:38.818Z,100928.13
2024-03-08T07:38:10.575Z,100933.84
2024-03-08T07:40:45.950Z,100942.81
2024-03-08T07:43:12.960Z,100940.47
2024-03-08T07:45:39.881Z,100938.00
2024-03-08T07:48:11.368Z,100934.97
2024-03-08T07:50:40.651Z,100939.81
2024-03-08T07:53:10.941Z,100945.25
2024-03-08T07:55:37.781Z,100935.59
2024-03-08T07:58:04.686Z,100945.78
2024-03-08T08:00:32.871Z,100949.31
2024-03-08T08:03:00.008Z,100935.75
2024-03-08T08:05:27.679Z,100946.25
2024-03-08T08:07:54.875Z,100944.38
2024-03-08T08:10:26.632Z,100943.97
2024-03-08T08:12:54.047Z,100945.72
2024-03-08T08:15:21.233Z,100948.56
2024-03-08T08:17:48.797Z,100946.31
2024-03-08T08:20:16.479Z,100948.47
2024-03-08T08:22:46.267Z,100933.44
2024-03-08T08:25:16.773Z,100940.88
2024-03-08T08:27:46.167Z,100946.66
2024-03-08T08:30:13.168Z,100949.31
2024-03-08T08:32:45.759Z,100947.66
2024-03-08T08:35:13.744Z,100943.19
2024-03-08T08:37:40.752Z,100953.13
2024-03-08T08:40:11.159Z,100940.16
2024-03-08T08:42:38.963Z,100942.00
2024-03-08T08:45:15.740Z,100942.22
2024-03-08T08:47:48.215Z,100942.44
2024-03-08T08:50:15.034Z,100939.25
2024-03-08T08:52:42.087Z,100939.47
2024-03-08T08:55:09.067Z,100946.84
2024-03-08T08:57:36.617Z,100939.13
2024-03-08T09:00:11.393Z,100941.13
2024-03-08T09:02:38.977Z,100935.19
2024-03-08T09:05:06.300Z,100947.78
2024-03-08T09:07:33.539Z,100943.59
2024-03-08T09:10:15.166Z,100942.94
2024-03-08T09:12:42.920Z,100942.28
2024-03-08T09:15:12.385Z,100940.00
2024-03-08T09:17:42.957Z,100938.44
2024-03-08T09:20:13.165Z,100933.34
2024-03-08T09:22:41.713Z,100938.91
2024-03-08T09:25:10.718Z,100935.53
2024-03-08T09:27:40.193Z,100936.50
2024-03-08T09:30:08.373Z,100942.84
2024-03-08T09:32:35.455Z,100942.25
2024-03-08T09:35:02.817Z,100941.41
2024-03-08T09:37:29.822Z,100939.81
2024-03-08T09:40:02.570Z,100944.44
2024-03-08T09:42:29.243Z,100949.00
2024-03-08T09:44:56.350Z,100945.59
2024-03-08T09:47:24.058Z,100943.06
2024-03-08T09:49:50.869Z,100937.91
2024-03-08T09:52:18.071Z,100943.31
2024-03-08T09:54:45.417Z,100940.66
2024-03-08T09:57:12.214Z,100935.00
2024-03-08T09:59:38.888Z,100937.84
2024-03-08T10:02:06.568Z,100938.94
2024-03-08T10:04:33.997Z,100938.09
2024-03-08T10:07:02.464Z,100948.69
2024-03-08T10:09:29.177Z,100947.59
2024-03-08T10:12:01.691Z,100940.91
2024-03-08T10:14:28.440Z,100946.38
2024-03-08T10:16:55.501Z,100937.72
2024-03-08T10:19:24.779Z,100946.00
2024-03-08T10:21:57.345Z,100940.94
2024-03-08T10:24:27.328Z,100941.78
2024-03-08T10:26:55.493Z,100937.69
2024-03-08T10:29:22.232Z,100937.28
2024-03-08T10:31:49.027Z,100936.06
2024-03-08T10:34:15.894Z,100936.47
2024-03-08T10:36:42.618Z,100937.09
2024-03-08T10:39:24.323Z,100939.00
2024-03-08T10:41:55.218Z,100936.62
2024-03-08T10:44:35.405Z,100935.13
2024-03-08T10:47:11.146Z,100932.22
2024-03-08T10:49:43.600Z,100923.75
2024-03-08T10:52:10.258Z,100924.22
2024-03-08T10:54:42.771Z,100921.41
2024-03-08T10:57:11.659Z,100918.75
2024-03-08T10:59:38.314Z,100920.94
2024-03-08T11:02:06.261Z,100924.09
2024-03-08T11:04:34.622Z,100931.13
2024-03-08T11:07:04.075Z,100929.09
2024-03-08T11:09:38.144Z,100931.75
2024-03-08T11:12:20.576Z,100925.56
2024-03-08T11:14:50.289Z,100928.22
2024-03-08T11:17:20.269Z,100922.75
2024-03-08T11:19:48.163Z,100929.22
2024-03-08T11:22:25.888Z,100922.31
2024-03-08T11:24:52.530Z,100922.19
2024-03-08T11:27:19.155Z,100917.47
2024-03-08T11:29:45.886Z,100907.53
2024-03-08T11:32:19.234Z,100907.44
2024-03-08T11:34:51.410Z,100908.16
2024-03-08T11:37:19.488Z,100903.69
2024-03-08T11:39:52.740Z,100905.47
2024-03-08T11:42:20.546Z,100900.81
2024-03-08T11:44:48.919Z,100899.72
2024-03-08T11:47:17.868Z,100899.81
2024-03-08T11:49:49.576Z,100890.34
2024-03-08T11:52:17.286Z,100900.81
2024-03-08T11:54:44.641Z,100891.34
2024-03-08T11:57:11.870Z,100896.62
2024-03-08T11:59:38.620Z,100889.62
2024-03-08T12:02:06.000Z,100886.97
2024-03-08T12:04:33.818Z,100892.22
2024-03-08T12:07:03.241Z,100880.63
2024-03-08T12:09:30.162Z,100886.22
2024-03-08T12:11:56.900Z,100888.84
2024-03-08T12:14:23.631Z,100889.34
2024-03-08T12:16:51.832Z,100883.53
2024-03-08T12:19:18.542Z,100874.88
2024-03-08T12:21:49.867Z,100879.50
2024-03-08T12:24:20.282Z,100875.16
2024-03-08T12:26:49.435Z,100879.56
2024-03-08T12:29:21.817Z,100874.91
2024-03-08T12:31:49.366Z,100867.53
2024-03-08T12:34:16.104Z,100872.44
2024-03-08T12:36:48.747Z,100874.78
2024-03-08T12:39:23.059Z,100869.06
2024-03-08T12:41:52.892Z,100869.50
2024-03-08T12:44:22.640Z,100871.81
2024-03-08T12:46:51.977Z,100872.28
2024-03-08T12:49:23.141Z,100868.34
2024-03-08T12:51:50.004Z,100874.09
2024-03-08T12:54:16.644Z,100869.19
2024-03-08T12:56:43.299Z,100862.56
2024-03-08T12:59:11.459Z,100862.12
2024-03-08T13:01:38.618Z,100862.53
2024-03-08T13:04:07.269Z,100860.31
2024-03-08T13:06:33.990Z,100854.31
2024-03-08T13:09:06.239Z,100846.69
2024-03-08T13:11:37.650Z,100848.66
2024-03-08T13:14:08.171Z,100850.72
2024-03-08T13:16:36.068Z,100852.00
2024-03-08T13:19:03.034Z,100851.41
2024-03-08T13:21:31.324Z,100856.91
2024-03-08T13:24:00.292Z,100845.72
2024-03-08T13:26:32.525Z,100845.16
2024-03-08T13:28:59.616Z,100845.44
2024-03-08T13:31:26.725Z,100843.00
2024-03-08T13:33:59.069Z,100838.91
2024-03-08T13:36:30.182Z,100847.03
2024-03-08T13:39:00.112Z,100839.19
2024-03-08T13:41:27.002Z,100845.59
2024-03-08T13:43:54.539Z,100844.88
2024-03-08T13:46:21.381Z,100837.09
2024-03-08T13:48:49.045Z,100836.34
2024-03-08T13:51:16.977Z,100838.22
2024-03-08T13:53:43.737Z,100833.03
2024-03-08T13:56:11.864Z,100830.56
2024-03-08T13:58:38.852Z,100830.75
2024-03-08T14:01:07.446Z,100837.03
2024-03-08T14:03:34.109Z,100837.16
2024-03-08T14:06:01.551Z,100836.44
2024-03-08T14:08:28.615Z,100830.31
2024-03-08T14:10:55.512Z,100830.03
2024-03-08T14:13:22.455Z,100826.75
2024-03-08T14:15:49.557Z,100828.69
2024-03-08T14:18:16.957Z,100822.72
2024-03-08T14:20:43.675Z,100827.50
2024-03-08T14:23:10.387Z,100824.25
2024-03-08T14:25:37.237Z,100814.50
2024-03-08T14:28:08.169Z,100817.88
2024-03-08T14:30:42.447Z,100812.22
2024-03-08T14:33:12.022Z,100823.41
2024-03-08T14:35:39.440Z,100822.19
2024-03-08T14:38:09.819Z,100820.28
2024-03-08T14:40:37.527Z,100818.44
2024-03-08T14:43:06.751Z,100809.81
2024-03-08T14:45:33.717Z,100811.09
2024-03-08T14:48:00.955Z,100808.91
2024-03-08T14:50:27.724Z,100812.34
2024-03-08T14:52:54.510Z,100806.00
2024-03-08T14:55:24.985Z,100803.91
2024-03-08T14:57:52.747Z,100806.31
2024-03-08T15:00:28.479Z,100800.41
2024-03-08T15:02:55.632Z,100805.59
2024-03-08T15:05:27.949Z,100797.25
2024-03-08T15:07:55.525Z,100809.53
2024-03-08T15:10:25.853Z,100792.28
2024-03-08T15:15:25.942Z,100794.62
2024-03-08T15:17:52.918Z,100801.75
2024-03-08T15:20:29.876Z,100797.47
2024-03-08T15:23:00.034Z,100806.37
2024-03-08T15:25:27.220Z,100803.81
2024-03-08T15:27:54.835Z,100803.72
2024-03-08T15:30:27.471Z,100801.91
2024-03-08T15:33:04.579Z,100798.31
2024-03-08T15:35:33.370Z,100798.38
2024-03-08T15:38:01.376Z,100796.44
2024-03-08T15:42:56.418Z,100805.81
2024-03-08T15:45:29.453Z,100795.56
2024-03-08T15:47:56.486Z,100800.28
2024-03-08T15:50:24.999Z,100801.91
2024-03-08T15:52:52.890Z,100792.97
2024-03-08T15:55:26.371Z,100796.66
2024-03-08T15:57:53.310Z,100800.09
2024-03-08T16:00:46.666Z,100804.16
2024-03-08T16:03:14.146Z,100803.91
2024-03-08T16:05:45.446Z,100798.47
2024-03-08T16:08:16.916Z,100802.00
2024-03-08T16:10:49.966Z,100803.91
2024-03-08T16:13:20.056Z,100804.56
2024-03-08T16:15:49.789Z,100799.69
2024-03-08T16:18:22.172Z,100806.44
2024-03-08T16:23:17.595Z,100808.38
2024-03-08T16:25:44.871Z,100799.06
2024-03-08T16:28:14.504Z,100804.78
2024-03-08T16:30:51.599Z,100802.78
2024-03-08T16:33:19.700Z,100800.00
2024-03-08T16:35:47.598Z,100803.34
2024-03-08T16:38:14.560Z,100801.28
2024-03-08T16:40:44.437Z,100805.25
2024-03-08T16:43:12.528Z,100809.41
2024-03-08T16:45:42.542Z,100810.88
2024-03-08T16:48:10.203Z,100808.97
2024-03-08T16:50:37.025Z,100806.00
2024-03-08T16:53:07.087Z,100810.91
2024-03-08T16:55:35.549Z,100812.28
2024-03-08T16:58:02.364Z,100802.94
2024-03-08T17:00:29.096Z,100803.22
2024-03-08T17:02:56.401Z,100805.47
2024-03-08T17:05:24.007Z,100807.56
2024-03-08T17:07:53.140Z,100805.31
2024-03-08T17:10:24.875Z,100804.69
2024-03-08T17:12:53.718Z,100805.81
2024-03-08T17:15:23.878Z,100807.91
2024-03-08T17:17:51.302Z,100809.91
2024-03-08T17:20:25.708Z,100813.75
2024-03-08T17:22:54.467Z,100809.59
2024-03-08T17:25:22.298Z,100814.31
2024-03-08T17:27:55.274Z,100819.81
2024-03-08T17:30:29.166Z,100812.97
2024-03-08T17:33:01.292Z,100820.25
2024-03-08T17:35:29.064Z,100818.81
2024-03-08T17:37:59.141Z,100820.81
2024-03-08T17:40:35.258Z,100827.16
2024-03-08T17:43:02.108Z,100820.25
2024-03-08T17:45:29.214Z,100816.03
2024-03-08T17:47:55.901Z,100815.28
2024-03-08T17:50:25.371Z,100820.78
2024-03-08T17:52:54.571Z,100817.41
2024-03-08T17:55:21.802Z,100817.59
2024-03-08T17:57:52.406Z,100824.84
2024-03-08T18:00:28.969Z,100820.50
2024-03-08T18:02:56.592Z,100813.66
2024-03-08T18:05:33.965Z,100820.00
2024-03-08T18:08:01.531Z,100820.13
2024-03-08T18:10:29.500Z,100816.56
2024-03-08T18:12:59.324Z,100818.91
2024-03-08T18:15:32.461Z,100817.53
2024-03-08T18:18:02.412Z,100827.34
2024-03-08T18:20:30.557Z,100821.13
2024-03-08T18:23:00.597Z,100817.75
2024-03-08T18:25:28.755Z,100820.66
2024-03-08T18:27:56.491Z,100819.66
2024-03-08T18:30:23.213Z,100819.25
2024-03-08T18:32:49.966Z,100817.03
2024-03-08T18:35:19.409Z,100822.78
2024-03-08T18:37:50.990Z,100817.09
2024-03-08T18:40:21.191Z,100815.22
2024-03-08T18:42:47.920Z,100818.97
2024-03-08T18:45:17.635Z,100805.00
2024-03-08T18:47:49.746Z,100811.56
2024-03-08T18:50:21.678Z,100809.34
2024-03-08T18:52:49.243Z,100806.34
2024-03-08T18:55:17.786Z,100809.72
2024-03-08T18:57:44.996Z,100813.63
2024-03-08T19:00:22.691Z,100819.16
2024-03-08T19:02:50.923Z,100811.81
2024-03-08T19:05:17.986Z,100803.47
2024-03-08T19:07:54.579Z,100806.63
2024-03-08T19:10:25.883Z,100813.06
2024-03-08T19:12:53.909Z,100816.91
2024-03-08T19:15:21.438Z,100817.50
2024-03-08T19:17:52.276Z,100820.75
2024-03-08T19:20:24.813Z,100815.97
2024-03-08T19:22:55.601Z,100808.50
2024-03-08T19:25:23.743Z,100807.09
2024-03-08T19:27:51.909Z,100810.13
2024-03-08T19:30:18.805Z,100813.13
2024-03-08T19:32:45.747Z,100808.12
2024-03-08T19:35:14.555Z,100804.81
2024-03-08T19:37:42.756Z,100811.22
2024-03-08T19:40:22.728Z,100802.53
2024-03-08T19:42:50.772Z,100790.31
2024-03-08T19:45:17.968Z,100806.37
2024-03-08T19:47:44.800Z,100803.84
2024-03-08T19:50:18.298Z,100797.44
2024-03-08T19:52:46.004Z,100803.56
2024-03-08T19:55:17.064Z,100804.34
2024-03-08T19:57:48.635Z,100807.94
2024-03-08T20:00:18.910Z,100814.97
2024-03-08T20:02:48.825Z,100802.63
2024-03-08T20:05:16.812Z,100811.56
2024-03-08T20:07:44.125Z,100808.94
2024-03-08T20:10:12.090Z,100804.72
2024-03-08T20:12:39.285Z,100802.06
2024-03-08T20:15:08.869Z,100803.84
2024-03-08T20:17:37.439Z,100813.72
2024-03-08T20:20:08.402Z,100809.41
2024-03-08T20:22:35.218Z,100804.94
2024-03-08T20:25:01.985Z,100807.56
2024-03-08T20:27:30.588Z,100803.19
2024-03-08T20:29:59.481Z,100794.28
2024-03-08T20:32:26.397Z,100805.12
2024-03-08T20:34:56.293Z,100806.06
2024-03-08T20:37:24.057Z,100805.25
2024-03-08T20:39:53.844Z,100805.25
2024-03-08T20:42:20.733Z,100797.28
2024-03-08T20:44:47.586Z,100805.25
2024-03-08T20:47:14.386Z,100797.38
2024-03-08T20:49:41.174Z,100791.97
2024-03-08T20:52:07.936Z,100797.38
2024-03-08T20:54:37.271Z,100799.16
2024-03-08T20:57:04.087Z,100798.31
2024-03-08T20:59:30.751Z,100792.91
2024-03-08T21:01:57.441Z,100800.88
2024-03-08T21:04:24.203Z,100793.84
2024-03-08T21:06:54.322Z,100792.03
2024-03-08T21:09:20.970Z,100788.44
2024-03-08T21:11:47.748Z,100786.72
2024-03-08T21:14:15.469Z,100788.44
2024-03-08T21:16:42.900Z,100795.47
2024-03-08T21:19:09.669Z,100776.94
2024-03-08T21:21:36.307Z,100780.34
2024-03-08T21:24:03.076Z,100776.94
2024-03-08T21:26:29.781Z,100778.66
2024-03-08T21:28:56.446Z,100774.19
2024-03-08T21:31:26.538Z,100767.06
2024-03-08T21:33:53.900Z,100775.03
2024-03-08T21:36:20.540Z,100774.91
2024-03-08T21:38:47.180Z,100765.00
2024-03-08T21:41:13.981Z,100765.97
2024-03-08T21:43:40.749Z,100762.19
2024-03-08T21:46:07.473Z,100764.00
2024-03-08T21:48:34.547Z,100762.19
2024-03-08T21:51:01.514Z,100764.78
2024-03-08T21:53:34.070Z,100757.69
2024-03-08T21:56:02.897Z,100756.72
2024-03-08T21:58:29.746Z,100756.72
2024-03-08T22:00:56.401Z,100764.62
2024-03-08T22:03:23.766Z,100750.47
2024-03-08T22:05:51.584Z,100752.97
2024-03-08T22:08:20.368Z,100757.44
2024-03-08T22:10:47.682Z,100753.75
2024-03-08T22:13:14.625Z,100752.03
2024-03-08T22:15:46.031Z,100752.13
2024-03-08T22:18:13.028Z,100748.56
2024-03-08T22:20:39.701Z,100751.22
2024-03-08T22:23:07.448Z,100750.31
2024-03-08T22:25:34.824Z,100743.25
2024-03-08T22:28:01.604Z,100752.88
2024-03-08T22:30:29.325Z,100751.06
2024-03-08T22:32:57.034Z,100744.03
2024-03-08T22:35:25.557Z,100752.03
2024-03-08T22:37:53.072Z,100739.66
2024-03-08T22:40:25.433Z,100743.09
2024-03-08T22:42:52.906Z,100743.88
2024-03-08T22:45:19.733Z,100738.56
2024-03-08T22:47:49.736Z,100745.66
2024-03-08T22:50:17.588Z,100746.63
2024-03-08T22:52:49.765Z,100740.44
2024-03-08T22:55:21.322Z,100742.13
2024-03-08T22:57:52.351Z,100744.81
2024-03-08T23:00:25.669Z,100742.13
2024-03-08T23:02:53.402Z,100746.63
2024-03-08T23:05:23.766Z,100747.41
2024-03-08T23:07:51.018Z,100740.28
2024-03-08T23:10:17.828Z,100736.75
2024-03-08T23:12:47.308Z,100743.62
2024-03-08T23:15:16.738Z,100742.84
2024-03-08T23:17:44.884Z,100748.28
2024-03-08T23:20:18.157Z,100742.94
2024-03-08T23:22:50.630Z,100744.66
2024-03-08T23:25:19.658Z,100748.28
2024-03-08T23:27:53.522Z,100750.94
2024-03-08T23:30:24.059Z,100752.66
2024-03-08T23:32:51.245Z,100743.88
2024-03-08T23:35:20.050Z,100747.47
2024-03-08T23:37:50.275Z,100753.75
2024-03-08T23:40:21.378Z,100754.53
2024-03-08T23:42:49.144Z,100743.00
2024-03-08T23:45:21.629Z,100740.44
2024-03-08T23:47:49.790Z,100739.41
2024-03-08T23:50:23.612Z,100741.22
2024-03-08T23:52:53.878Z,100751.87
2024-03-08T23:55:30.810Z,100743.00
2024-03-08T23:57:58.350Z,100744.81
